Time;durP1;ratioP1;P1;durP2;ratioP2;P2;SDS_P1;SDS_P2;PMS_P1;PMS_P2;Temp;Humidity;BMP_temperature;BMP_pressure;BME280_temperature;BME280_humidity;BME280_pressure;Samples;Min_cycle;Max_cycle;Signal;HPM_P1;HPM_P2
2022/03/01 00:00:32;;;;;;;66.15;33.38;;;1.80;99.90;;;;;;5037007;28;20045;-78
2022/03/01 00:02:58;;;;;;;55.63;31.75;;;1.80;99.90;;;;;;5048128;28;20053;-78
2022/03/01 00:05:23;;;;;;;61.67;33.78;;;1.80;99.90;;;;;;5046848;28;20049;-78
2022/03/01 00:07:49;;;;;;;61.90;35.42;;;1.70;99.90;;;;;;5047047;28;20048;-79
2022/03/01 00:10:14;;;;;;;56.85;32.28;;;1.70;99.90;;;;;;5045861;28;20049;-79
2022/03/01 00:12:40;;;;;;;57.15;34.85;;;1.60;99.90;;;;;;5046648;28;20055;-79
2022/03/01 00:15:06;;;;;;;53.20;32.28;;;1.60;99.90;;;;;;5047022;28;20525;-79
2022/03/01 00:17:32;;;;;;;67.80;35.35;;;1.60;99.90;;;;;;5043577;28;20076;-79
2022/03/01 00:19:58;;;;;;;62.17;32.40;;;1.60;99.90;;;;;;5050509;28;20072;-78
2022/03/01 00:22:24;;;;;;;56.85;33.70;;;1.50;99.90;;;;;;5048559;28;20056;-79
2022/03/01 00:24:49;;;;;;;59.45;34.22;;;1.50;99.90;;;;;;5053867;28;20043;-77
2022/03/01 00:27:15;;;;;;;66.60;36.40;;;1.50;99.90;;;;;;5046511;28;20056;-76
2022/03/01 00:29:41;;;;;;;56.58;34.25;;;1.50;99.90;;;;;;5043802;28;20045;-78
2022/03/01 00:32:07;;;;;;;64.20;33.58;;;1.40;99.90;;;;;;5048001;28;20053;-77
2022/03/01 00:34:33;;;;;;;59.78;34.70;;;1.40;99.90;;;;;;5043948;28;20045;-77
2022/03/01 00:36:59;;;;;;;57.30;33.65;;;1.40;99.90;;;;;;5046434;28;20502;-77
2022/03/01 00:39:24;;;;;;;59.67;35.15;;;1.30;99.90;;;;;;5045540;28;20484;-77
2022/03/01 00:41:54;;;;;;;61.88;34.25;;;1.30;99.90;;;;;;5048056;28;20128;-77
2022/03/01 00:44:20;;;;;;;63.80;35.15;;;1.20;99.90;;;;;;5078994;28;20115;-77
2022/03/01 00:46:45;;;;;;;65.70;35.58;;;1.20;99.90;;;;;;5049192;28;20051;-78
2022/03/01 00:49:11;;;;;;;75.10;35.40;;;1.10;99.90;;;;;;5047251;28;20743;-77
2022/03/01 00:51:37;;;;;;;69.05;36.55;;;1.10;99.90;;;;;;5079525;28;20124;-77
2022/03/01 00:54:02;;;;;;;49.92;30.58;;;1.10;99.90;;;;;;5045430;28;20131;-77
2022/03/01 00:56:30;;;;;;;56.40;34.03;;;1.10;99.90;;;;;;5046382;28;20044;-78
2022/03/01 00:58:56;;;;;;;54.47;33.85;;;1.10;99.90;;;;;;5045445;28;20084;-77
2022/03/01 01:01:22;;;;;;;63.20;35.05;;;1.10;99.90;;;;;;5046959;28;20399;-77
2022/03/01 01:03:48;;;;;;;60.38;34.13;;;1.10;99.90;;;;;;5080161;28;20045;-77
2022/03/01 01:06:14;;;;;;;58.08;34.15;;;1.10;99.90;;;;;;5044538;28;20561;-77
2022/03/01 01:08:41;;;;;;;58.00;33.95;;;1.10;99.90;;;;;;5080757;28;20471;-77
2022/03/01 01:11:07;;;;;;;62.40;35.53;;;1.10;99.90;;;;;;5050671;28;20106;-77
2022/03/01 01:13:33;;;;;;;63.90;35.55;;;1.00;99.90;;;;;;5046908;28;20069;-77
2022/03/01 01:15:59;;;;;;;55.92;34.83;;;0.90;99.90;;;;;;5046410;28;20124;-77
2022/03/01 01:18:26;;;;;;;61.33;35.72;;;0.90;99.90;;;;;;5044772;28;20616;-77
2022/03/01 01:20:52;;;;;;;63.75;34.88;;;0.80;99.90;;;;;;5077709;28;20120;-77
2022/03/01 01:23:18;;;;;;;58.72;34.88;;;0.80;99.90;;;;;;5079175;28;20041;-78
2022/03/01 01:25:44;;;;;;;56.75;34.50;;;0.80;99.90;;;;;;5045691;28;20059;-78
2022/03/01 01:28:09;;;;;;;54.08;33.72;;;0.80;99.90;;;;;;5045404;28;20045;-77
2022/03/01 01:30:35;;;;;;;57.90;33.47;;;0.80;99.90;;;;;;5047697;28;20125;-77
2022/03/01 01:33:02;;;;;;;62.22;35.20;;;0.70;99.90;;;;;;5046837;28;20127;-77
2022/03/01 01:35:31;;;;;;;62.33;36.35;;;0.70;99.90;;;;;;5078885;28;20108;-77
2022/03/01 01:37:57;;;;;;;63.58;35.90;;;0.70;99.90;;;;;;5078824;28;20521;-77
2022/03/01 01:40:29;;;;;;;67.72;35.67;;;0.70;99.90;;;;;;5078182;28;20041;-77
2022/03/01 01:42:57;;;;;;;59.72;34.83;;;0.70;99.90;;;;;;5047033;28;20520;-78
2022/03/01 01:45:24;;;;;;;65.57;36.38;;;0.70;99.90;;;;;;5078626;28;20056;-78
2022/03/01 01:47:51;;;;;;;60.63;35.00;;;0.70;99.90;;;;;;5045793;28;20486;-78
2022/03/01 01:50:17;;;;;;;59.90;35.90;;;0.70;99.90;;;;;;5057790;28;20486;-78
2022/03/01 01:52:45;;;;;;;68.05;36.60;;;0.70;99.90;;;;;;5065822;28;20139;-78
2022/03/01 01:55:11;;;;;;;61.17;36.03;;;0.60;99.90;;;;;;5055093;28;20493;-78
2022/03/01 01:57:37;;;;;;;60.40;35.78;;;0.60;99.90;;;;;;5075735;28;20040;-78
2022/03/01 02:00:05;;;;;;;62.13;34.80;;;0.60;99.90;;;;;;5050475;28;20055;-79
2022/03/01 02:02:30;;;;;;;64.70;34.30;;;0.60;99.90;;;;;;5036416;28;20064;-78
2022/03/01 02:04:56;;;;;;;68.40;37.05;;;0.50;99.90;;;;;;5049196;28;20045;-78
2022/03/01 02:07:22;;;;;;;66.13;35.78;;;0.50;99.90;;;;;;5050248;28;20520;-78
2022/03/01 02:09:47;;;;;;;64.38;35.28;;;0.50;99.90;;;;;;5047508;28;20129;-78
2022/03/01 02:12:13;;;;;;;61.38;36.15;;;0.50;99.90;;;;;;5048824;28;20070;-78
2022/03/01 02:14:40;;;;;;;58.88;36.03;;;0.50;99.90;;;;;;5045774;28;20051;-78
2022/03/01 02:17:08;;;;;;;60.88;37.83;;;0.50;99.90;;;;;;5045685;28;20048;-78
2022/03/01 02:19:34;;;;;;;69.80;37.42;;;0.50;99.90;;;;;;5082465;28;20053;-78
2022/03/01 02:22:00;;;;;;;68.10;37.85;;;0.50;99.90;;;;;;5045548;28;20045;-78
2022/03/01 02:24:28;;;;;;;72.20;39.97;;;0.50;99.90;;;;;;5045920;28;20048;-78
2022/03/01 02:26:56;;;;;;;64.97;36.97;;;0.50;99.90;;;;;;5080279;28;20053;-78
2022/03/01 02:29:22;;;;;;;64.50;35.35;;;0.50;99.90;;;;;;5050303;28;20080;-79
2022/03/01 02:31:49;;;;;;;53.15;32.60;;;0.40;99.90;;;;;;5047944;28;20822;-78
2022/03/01 02:34:15;;;;;;;66.97;37.88;;;0.40;99.90;;;;;;5072642;28;20037;-79
2022/03/01 02:36:41;;;;;;;60.40;36.38;;;0.30;99.90;;;;;;5049126;28;20186;-78
2022/03/01 02:39:07;;;;;;;60.80;36.13;;;0.30;99.90;;;;;;5047955;28;20041;-78
2022/03/01 02:41:45;;;;;;;62.28;37.47;;;0.30;99.90;;;;;;5048128;28;20076;-77
2022/03/01 02:44:11;;;;;;;65.38;39.95;;;0.30;99.90;;;;;;5081514;28;20044;-77
2022/03/01 02:46:37;;;;;;;76.22;42.72;;;0.30;99.90;;;;;;5048535;28;20124;-77
2022/03/01 02:49:04;;;;;;;79.53;42.50;;;0.40;99.90;;;;;;5048100;28;20565;-78
2022/03/01 02:51:30;;;;;;;80.50;41.53;;;0.40;99.90;;;;;;5046228;28;20049;-78
2022/03/01 02:53:56;;;;;;;78.05;42.92;;;0.50;99.90;;;;;;5053156;28;20118;-78
2022/03/01 02:56:22;;;;;;;74.45;42.03;;;0.50;99.90;;;;;;5050807;28;20819;-78
2022/03/01 02:58:47;;;;;;;81.25;42.53;;;0.50;99.90;;;;;;5048658;28;20049;-78
2022/03/01 03:01:13;;;;;;;79.78;44.17;;;0.50;99.90;;;;;;5048695;28;20087;-78
2022/03/01 03:03:39;;;;;;;81.32;44.28;;;0.50;99.90;;;;;;5044130;28;20099;-78
2022/03/01 03:06:05;;;;;;;68.65;42.28;;;0.60;99.90;;;;;;5048042;28;20520;-78
2022/03/01 03:08:31;;;;;;;64.65;40.20;;;0.60;99.90;;;;;;5046724;28;20852;-78
2022/03/01 03:10:57;;;;;;;75.18;41.67;;;0.50;99.90;;;;;;5052066;28;20466;-78
2022/03/01 03:13:24;;;;;;;69.45;41.00;;;0.50;99.90;;;;;;5048711;28;20049;-78
2022/03/01 03:15:51;;;;;;;74.47;39.00;;;0.50;99.90;;;;;;5048758;28;20049;-78
2022/03/01 03:18:17;;;;;;;73.63;41.05;;;0.50;99.90;;;;;;5048891;28;20071;-78
2022/03/01 03:20:43;;;;;;;72.25;41.30;;;0.40;99.90;;;;;;5043931;28;20398;-77
2022/03/01 03:23:09;;;;;;;80.07;43.58;;;0.40;99.90;;;;;;5048623;28;20048;-78
2022/03/01 03:25:35;;;;;;;87.53;44.33;;;0.40;99.90;;;;;;5043731;28;20186;-78
2022/03/01 03:28:01;;;;;;;80.30;43.85;;;0.40;99.90;;;;;;5047835;28;20045;-78
2022/03/01 03:30:27;;;;;;;74.03;42.00;;;0.50;99.90;;;;;;5082310;28;20037;-78
2022/03/01 03:32:53;;;;;;;80.45;46.28;;;0.50;99.90;;;;;;5080617;28;20056;-79
2022/03/01 03:35:19;;;;;;;75.47;41.05;;;0.50;99.90;;;;;;5049633;28;20102;-78
2022/03/01 03:37:45;;;;;;;69.95;40.38;;;0.40;99.90;;;;;;5080205;28;20755;-78
2022/03/01 03:40:12;;;;;;;75.68;43.15;;;0.40;99.90;;;;;;5050182;28;20048;-78
2022/03/01 03:42:38;;;;;;;72.03;41.03;;;0.40;99.90;;;;;;5080139;28;20051;-79
2022/03/01 03:45:06;;;;;;;78.75;43.47;;;0.40;99.90;;;;;;5046088;28;20045;-79
2022/03/01 03:47:32;;;;;;;72.70;43.20;;;0.40;99.90;;;;;;5076932;28;20434;-79
2022/03/01 03:49:58;;;;;;;75.10;43.08;;;0.40;99.90;;;;;;5047603;28;20128;-79
2022/03/01 03:52:23;;;;;;;75.13;41.80;;;0.40;99.90;;;;;;5047948;28;20155;-79
2022/03/01 03:54:50;;;;;;;76.15;42.00;;;0.40;99.90;;;;;;5079088;28;20049;-79
2022/03/01 03:57:16;;;;;;;76.30;42.30;;;0.30;99.90;;;;;;5045528;28;20052;-79
2022/03/01 03:59:43;;;;;;;68.93;40.95;;;0.30;99.90;;;;;;5048632;28;20135;-79
2022/03/01 04:02:09;;;;;;;76.70;43.05;;;0.30;99.90;;;;;;5076238;28;20055;-79
2022/03/01 04:04:35;;;;;;;73.72;41.22;;;0.30;99.90;;;;;;5047321;28;20041;-79
2022/03/01 04:07:00;;;;;;;72.32;41.92;;;0.30;99.90;;;;;;5043383;28;20049;-79
2022/03/01 04:09:26;;;;;;;73.93;41.20;;;0.30;99.90;;;;;;5047529;28;20044;-79
2022/03/01 04:11:53;;;;;;;76.65;42.30;;;0.30;99.90;;;;;;5047768;28;20101;-79
2022/03/01 04:14:19;;;;;;;83.20;41.80;;;0.30;99.90;;;;;;5044052;28;20052;-79
2022/03/01 04:16:46;;;;;;;72.55;42.75;;;0.30;99.90;;;;;;5047677;28;20037;-79
2022/03/01 04:19:13;;;;;;;81.68;46.38;;;0.30;99.90;;;;;;5075162;28;20517;-78
2022/03/01 04:21:39;;;;;;;78.63;42.50;;;0.30;99.90;;;;;;5048401;28;20053;-79
2022/03/01 04:24:06;;;;;;;76.97;46.08;;;0.30;99.90;;;;;;5047813;28;20043;-79
2022/03/01 04:26:33;;;;;;;74.18;42.72;;;0.30;99.90;;;;;;5046425;28;20086;-79
2022/03/01 04:28:59;;;;;;;79.55;44.30;;;0.30;99.90;;;;;;5044610;28;20403;-78
2022/03/01 04:31:25;;;;;;;83.68;45.13;;;0.30;99.90;;;;;;5050287;28;20608;-78
2022/03/01 04:33:54;;;;;;;82.28;43.78;;;0.30;99.90;;;;;;5066541;28;20044;-78
2022/03/01 04:36:20;;;;;;;78.10;44.47;;;0.30;99.90;;;;;;5047794;28;20115;-78
2022/03/01 04:38:45;;;;;;;81.63;44.08;;;0.30;99.90;;;;;;5046686;28;20494;-78
2022/03/01 04:41:11;;;;;;;79.32;43.05;;;0.30;99.90;;;;;;5046155;28;20383;-78
2022/03/01 04:43:37;;;;;;;82.15;43.28;;;0.30;99.90;;;;;;5046732;28;20455;-78
2022/03/01 04:46:03;;;;;;;84.03;44.38;;;0.30;99.90;;;;;;5047857;28;20047;-78
2022/03/01 04:48:29;;;;;;;77.68;43.45;;;0.30;99.90;;;;;;5046374;28;20075;-79
2022/03/01 04:50:55;;;;;;;82.00;43.72;;;0.30;99.90;;;;;;5074072;28;20124;-78
2022/03/01 04:53:22;;;;;;;80.90;44.78;;;0.20;99.90;;;;;;5045361;28;20067;-78
2022/03/01 04:55:48;;;;;;;83.35;45.50;;;0.30;99.90;;;;;;5048260;28;20071;-78
2022/03/01 04:58:13;;;;;;;72.35;44.15;;;0.30;99.90;;;;;;5046988;28;20111;-79
2022/03/01 05:00:39;;;;;;;86.88;43.65;;;0.30;99.90;;;;;;5079417;28;20044;-78
2022/03/01 05:03:05;;;;;;;74.18;42.92;;;0.30;99.90;;;;;;5070490;28;20540;-78
2022/03/01 05:05:32;;;;;;;70.00;42.38;;;0.30;99.90;;;;;;5081320;28;20051;-78
2022/03/01 05:07:58;;;;;;;72.28;41.05;;;0.30;99.90;;;;;;5044183;28;20056;-78
2022/03/01 05:10:24;;;;;;;82.40;44.08;;;0.30;99.90;;;;;;5045314;28;20412;-78
2022/03/01 05:12:52;;;;;;;76.65;44.42;;;0.30;99.90;;;;;;5042028;28;20077;-78
2022/03/01 05:15:19;;;;;;;79.00;41.42;;;0.30;99.90;;;;;;5060787;28;20045;-79
2022/03/01 05:17:46;;;;;;;75.35;41.45;;;0.30;99.90;;;;;;5073471;28;20787;-76
2022/03/01 05:20:13;;;;;;;71.03;40.28;;;0.30;99.90;;;;;;5077469;28;20086;-76
2022/03/01 05:22:40;;;;;;;80.28;44.03;;;0.30;99.90;;;;;;5079947;28;20703;-77
2022/03/01 05:25:09;;;;;;;80.97;45.15;;;0.30;99.90;;;;;;5041614;28;20088;-77
2022/03/01 05:27:38;;;;;;;76.68;43.17;;;0.30;99.90;;;;;;5044597;28;20102;-77
2022/03/01 05:30:06;;;;;;;81.32;45.30;;;0.30;99.90;;;;;;5052371;28;20048;-78
2022/03/01 05:32:40;;;;;;;86.88;47.38;;;0.40;99.90;;;;;;5051983;28;20059;-78
2022/03/01 05:35:10;;;;;;;80.82;46.08;;;0.40;99.90;;;;;;5049855;28;20045;-78
2022/03/01 05:37:38;;;;;;;87.97;47.95;;;0.40;99.90;;;;;;5046834;28;20401;-78
2022/03/01 05:40:05;;;;;;;78.50;44.90;;;0.40;99.90;;;;;;5054368;28;21981;-78
2022/03/01 05:42:31;;;;;;;88.88;46.20;;;0.50;99.90;;;;;;5048159;28;20052;-78
2022/03/01 05:44:59;;;;;;;80.22;45.22;;;0.50;99.90;;;;;;5081541;28;20084;-77
2022/03/01 05:47:28;;;;;;;78.90;45.42;;;0.50;99.90;;;;;;5051422;28;20093;-78
2022/03/01 05:49:56;;;;;;;80.00;46.25;;;0.50;99.90;;;;;;5041263;28;20053;-79
2022/03/01 05:52:22;;;;;;;78.30;44.47;;;0.50;99.90;;;;;;5049731;28;20053;-78
2022/03/01 05:54:49;;;;;;;81.35;47.97;;;0.50;99.90;;;;;;5050934;28;20128;-78
2022/03/01 05:57:15;;;;;;;83.15;46.60;;;0.50;99.90;;;;;;5049726;28;20053;-77
2022/03/01 05:59:48;;;;;;;88.53;48.67;;;0.50;99.90;;;;;;5082186;28;20119;-78
2022/03/01 06:02:18;;;;;;;91.03;49.80;;;0.60;99.90;;;;;;5053614;28;20468;-78
2022/03/01 06:04:44;;;;;;;89.03;47.53;;;0.60;99.90;;;;;;5051008;28;20065;-78
2022/03/01 06:07:10;;;;;;;80.85;47.45;;;0.60;99.90;;;;;;5049063;28;20053;-78
2022/03/01 06:09:36;;;;;;;89.90;47.95;;;0.60;99.90;;;;;;5080648;28;20045;-78
2022/03/01 06:12:02;;;;;;;94.75;48.00;;;0.60;99.90;;;;;;5056494;28;20459;-78
2022/03/01 06:14:27;;;;;;;84.55;48.63;;;0.60;99.90;;;;;;5050384;28;20048;-78
2022/03/01 06:16:53;;;;;;;88.20;48.95;;;0.70;99.90;;;;;;5049111;28;20313;-78
2022/03/01 06:19:19;;;;;;;82.75;48.33;;;0.60;99.90;;;;;;5049074;28;20041;-77
2022/03/01 06:21:45;;;;;;;89.38;49.08;;;0.70;99.90;;;;;;5049764;28;20059;-77
2022/03/01 06:24:11;;;;;;;77.18;47.00;;;0.70;99.90;;;;;;5048793;28;20398;-76
2022/03/01 06:26:37;;;;;;;82.03;48.05;;;0.70;99.90;;;;;;5031529;28;20049;-78
2022/03/01 06:29:04;;;;;;;84.60;48.08;;;0.70;99.90;;;;;;5042832;28;20072;-75
2022/03/01 06:31:30;;;;;;;89.18;49.33;;;0.70;99.90;;;;;;5067160;28;20053;-77
2022/03/01 06:33:56;;;;;;;82.32;48.47;;;0.70;99.90;;;;;;5031456;28;20067;-77
2022/03/01 06:36:23;;;;;;;88.13;48.45;;;0.80;99.90;;;;;;5082005;28;20120;-77
2022/03/01 06:38:48;;;;;;;85.80;48.50;;;0.80;99.90;;;;;;5051088;28;20769;-77
2022/03/01 06:41:15;;;;;;;83.03;49.95;;;0.80;99.90;;;;;;5045068;28;20045;-77
2022/03/01 06:43:41;;;;;;;75.85;45.45;;;0.90;99.90;;;;;;5048798;28;20040;-77
2022/03/01 06:46:07;;;;;;;77.45;44.47;;;0.90;99.90;;;;;;5045596;28;20060;-77
2022/03/01 06:48:33;;;;;;;82.72;46.85;;;0.90;99.90;;;;;;5050064;28;20755;-77
2022/03/01 06:50:59;;;;;;;80.10;45.08;;;0.90;99.90;;;;;;5049491;28;20056;-77
2022/03/01 06:53:25;;;;;;;82.55;45.40;;;0.90;99.90;;;;;;5045604;28;20151;-77
2022/03/01 06:55:50;;;;;;;78.72;44.78;;;0.90;99.90;;;;;;5046009;28;20048;-78
2022/03/01 06:58:16;;;;;;;81.60;45.72;;;0.90;99.90;;;;;;5047730;28;20053;-79
2022/03/01 07:00:42;;;;;;;74.78;45.45;;;0.90;99.90;;;;;;5046367;28;20051;-78
2022/03/01 07:03:08;;;;;;;78.18;45.13;;;1.00;99.90;;;;;;5041374;28;20071;-77
2022/03/01 07:05:34;;;;;;;78.63;45.97;;;1.00;99.90;;;;;;5046733;28;20161;-77
2022/03/01 07:07:59;;;;;;;79.45;46.40;;;0.90;99.90;;;;;;5049421;28;20086;-77
2022/03/01 07:10:26;;;;;;;87.13;48.75;;;1.00;99.90;;;;;;5029136;28;20042;-78
2022/03/01 07:12:52;;;;;;;88.78;48.70;;;1.00;99.90;;;;;;5041069;28;20052;-78
2022/03/01 07:15:19;;;;;;;77.97;46.60;;;1.00;99.90;;;;;;5051030;28;20401;-77
2022/03/01 07:17:45;;;;;;;93.35;52.20;;;1.00;99.90;;;;;;5031357;28;20091;-78
2022/03/01 07:20:12;;;;;;;88.30;52.15;;;1.10;99.90;;;;;;5047935;28;20052;-80
2022/03/01 07:22:38;;;;;;;87.88;49.70;;;1.10;99.90;;;;;;5081269;28;20033;-79
2022/03/01 07:25:04;;;;;;;80.95;47.28;;;1.20;99.90;;;;;;5079848;28;20405;-80
2022/03/01 07:27:30;;;;;;;78.15;45.80;;;1.30;99.90;;;;;;5048510;28;20106;-78
2022/03/01 07:29:56;;;;;;;79.70;45.28;;;1.30;99.90;;;;;;5047688;28;20032;-79
2022/03/01 07:32:23;;;;;;;76.80;44.80;;;1.40;99.90;;;;;;5047262;28;20079;-78
2022/03/01 07:34:48;;;;;;;78.35;46.30;;;1.50;99.90;;;;;;5048564;28;20111;-78
2022/03/01 07:37:14;;;;;;;85.35;48.45;;;1.50;99.90;;;;;;5044528;28;20490;-79
2022/03/01 07:39:40;;;;;;;85.05;47.33;;;1.60;99.90;;;;;;5047751;28;20069;-78
2022/03/01 07:42:06;;;;;;;81.35;45.17;;;1.60;99.90;;;;;;5078698;28;20110;-78
2022/03/01 07:44:36;;;;;;;70.13;44.25;;;1.60;99.90;;;;;;5045335;28;20056;-78
2022/03/01 07:47:05;;;;;;;81.68;48.38;;;1.70;99.90;;;;;;5046144;28;20053;-76
2022/03/01 07:49:30;;;;;;;92.18;47.00;;;1.70;99.90;;;;;;5047380;28;20047;-76
2022/03/01 07:51:56;;;;;;;72.78;43.65;;;1.80;99.90;;;;;;5078730;28;20049;-75
2022/03/01 07:54:22;;;;;;;76.75;49.00;;;1.90;99.90;;;;;;5046951;28;20502;-75
2022/03/01 07:56:47;;;;;;;75.35;45.75;;;2.00;99.90;;;;;;5048129;28;20053;-75
2022/03/01 07:59:13;;;;;;;78.50;43.17;;;2.10;99.90;;;;;;5044782;28;20047;-74
2022/03/01 08:01:39;;;;;;;78.20;45.03;;;2.10;99.90;;;;;;5052352;28;20048;-74
2022/03/01 08:04:04;;;;;;;70.10;41.30;;;2.20;99.90;;;;;;5051244;28;20051;-74
2022/03/01 08:06:30;;;;;;;64.50;42.35;;;2.20;99.90;;;;;;5046397;28;20435;-74
2022/03/01 08:08:55;;;;;;;79.80;42.83;;;2.30;99.90;;;;;;5046733;28;20120;-75
2022/03/01 08:11:21;;;;;;;75.38;43.05;;;2.40;99.90;;;;;;5076712;28;20052;-74
2022/03/01 08:13:47;;;;;;;71.07;42.92;;;2.40;99.90;;;;;;5047589;28;20045;-75
2022/03/01 08:16:13;;;;;;;88.25;43.88;;;2.50;99.90;;;;;;5078526;28;20055;-74
2022/03/01 08:18:38;;;;;;;70.25;40.85;;;2.50;99.90;;;;;;5047754;28;20048;-74
2022/03/01 08:21:06;;;;;;;75.97;45.85;;;2.60;99.90;;;;;;5048005;28;20060;-77
2022/03/01 08:23:34;;;;;;;65.38;41.25;;;2.60;99.90;;;;;;5046807;28;20059;-76
2022/03/01 08:25:59;;;;;;;67.30;40.47;;;2.70;99.90;;;;;;5044921;28;20057;-75
2022/03/01 08:28:26;;;;;;;67.50;39.95;;;2.70;99.90;;;;;;5045251;28;20045;-74
2022/03/01 08:30:54;;;;;;;59.58;38.80;;;2.80;99.90;;;;;;5042976;28;20045;-74
2022/03/01 08:33:21;;;;;;;;;;;2.80;99.90;;;;;;5044673;28;20123;-74
2022/03/01 08:35:48;;;;;;;74.63;44.42;;;2.80;99.90;;;;;;5047688;28;19974;-74
2022/03/01 08:38:14;;;;;;;72.63;42.40;;;2.80;99.90;;;;;;5079593;28;20044;-74
2022/03/01 08:40:39;;;;;;;76.13;42.05;;;2.90;99.90;;;;;;5044914;28;20060;-75
2022/03/01 08:43:10;;;;;;;74.63;43.75;;;2.90;99.90;;;;;;5042298;28;20529;-75
2022/03/01 08:45:36;;;;;;;74.97;45.33;;;3.00;99.90;;;;;;5043515;28;20499;-77
2022/03/01 08:48:03;;;;;;;73.05;43.05;;;3.00;99.90;;;;;;5045476;28;20098;-77
2022/03/01 08:50:30;;;;;;;71.35;42.05;;;3.10;99.90;;;;;;5034536;28;20055;-77
2022/03/01 08:52:56;;;;;;;71.18;43.15;;;3.10;99.90;;;;;;5076015;28;20053;-77
2022/03/01 08:55:21;;;;;;;74.72;42.33;;;3.20;99.90;;;;;;5044811;28;20402;-76
2022/03/01 08:57:47;;;;;;;69.95;42.92;;;3.20;99.90;;;;;;5045709;28;20051;-75
2022/03/01 09:00:15;;;;;;;67.05;42.80;;;3.30;99.90;;;;;;5046172;28;20505;-76
2022/03/01 09:02:41;;;;;;;67.13;42.70;;;3.40;99.90;;;;;;5079189;28;20125;-76
2022/03/01 09:05:07;;;;;;;74.38;43.22;;;3.50;99.90;;;;;;5045584;28;20140;-76
2022/03/01 09:07:33;;;;;;;69.47;41.13;;;3.50;99.90;;;;;;5043269;28;20053;-76
2022/03/01 09:09:59;;;;;;;75.28;42.47;;;3.70;99.90;;;;;;5042991;28;20048;-77
2022/03/01 09:12:26;;;;;;;71.82;42.22;;;3.80;99.90;;;;;;5048515;28;20099;-76
2022/03/01 09:14:52;;;;;;;71.78;43.83;;;3.90;99.90;;;;;;5044262;28;20076;-77
2022/03/01 09:17:17;;;;;;;69.05;40.50;;;4.00;99.90;;;;;;5046638;28;20151;-76
2022/03/01 09:19:43;;;;;;;74.50;42.00;;;4.10;99.90;;;;;;5079921;28;20053;-76
2022/03/01 09:22:09;;;;;;;57.63;35.00;;;4.20;99.90;;;;;;5049059;28;20040;-76
2022/03/01 09:24:35;;;;;;;50.03;32.05;;;4.40;99.90;;;;;;5045515;28;21066;-77
2022/03/01 09:27:02;;;;;;;50.15;32.55;;;4.60;99.90;;;;;;5046911;28;20124;-77
2022/03/01 09:29:30;;;;;;;52.20;31.70;;;4.80;99.90;;;;;;5047652;28;20052;-76
2022/03/01 09:31:56;;;;;;;52.58;32.25;;;5.00;99.90;;;;;;5051189;28;20040;-77
2022/03/01 09:34:22;;;;;;;52.25;32.58;;;5.10;99.90;;;;;;5047022;28;20091;-75
2022/03/01 09:36:47;;;;;;;54.50;34.42;;;5.20;99.90;;;;;;5046219;28;20045;-75
2022/03/01 09:39:14;;;;;;;48.30;30.48;;;5.40;99.90;;;;;;5047441;28;20137;-74
2022/03/01 09:41:40;;;;;;;63.30;32.60;;;5.50;99.90;;;;;;5045195;28;20405;-75
2022/03/01 09:44:07;;;;;;;52.17;32.35;;;5.60;99.90;;;;;;5043071;28;20033;-74
2022/03/01 09:46:35;;;;;;;53.28;32.50;;;5.70;99.90;;;;;;5077992;28;20049;-75
2022/03/01 09:49:01;;;;;;;49.85;32.95;;;5.70;99.90;;;;;;5045010;28;20045;-75
2022/03/01 09:51:27;;;;;;;57.08;35.10;;;5.80;99.90;;;;;;5045957;28;20490;-78
2022/03/01 09:53:54;;;;;;;49.67;30.30;;;5.90;99.90;;;;;;5046452;28;20089;-75
2022/03/01 09:56:20;;;;;;;51.15;30.42;;;6.00;99.90;;;;;;5045253;28;20045;-76
2022/03/01 09:58:47;;;;;;;47.80;29.40;;;6.10;99.90;;;;;;5045036;28;20077;-76
2022/03/01 10:01:14;;;;;;;50.70;33.08;;;6.20;99.90;;;;;;5047156;28;20410;-76
2022/03/01 10:03:40;;;;;;;52.47;30.25;;;6.30;99.90;;;;;;5047931;28;20041;-77
2022/03/01 10:06:11;;;;;;;54.53;32.13;;;6.30;99.90;;;;;;5075350;28;20057;-75
2022/03/01 10:08:37;;;;;;;49.20;32.10;;;6.40;99.90;;;;;;5045148;28;20049;-75
2022/03/01 10:11:03;;;;;;;49.30;31.25;;;6.50;99.90;;;;;;5044351;28;20124;-75
2022/03/01 10:13:34;;;;;;;53.17;32.08;;;6.60;99.90;;;;;;5045234;28;20048;-75
2022/03/01 10:16:14;;;;;;;47.35;31.40;;;6.60;99.90;;;;;;5081218;28;20158;-74
2022/03/01 10:18:57;;;;;;;48.78;30.85;;;6.70;99.90;;;;;;5044893;28;20059;-75
2022/03/01 10:21:26;;;;;;;49.30;31.65;;;6.70;99.90;;;;;;5079564;28;20079;-75
2022/03/01 10:23:53;;;;;;;59.65;32.53;;;6.80;99.90;;;;;;5048597;28;20124;-75
2022/03/01 10:26:24;;;;;;;44.95;30.05;;;6.80;99.90;;;;;;5049924;28;20150;-72
2022/03/01 10:28:52;;;;;;;48.08;32.20;;;6.80;99.90;;;;;;5049929;28;20123;-74
2022/03/01 10:31:24;;;;;;;46.60;30.42;;;6.90;99.90;;;;;;5048253;28;20048;-72
2022/03/01 10:34:00;;;;;;;52.38;31.98;;;7.00;99.90;;;;;;5048962;28;20045;-73
2022/03/01 10:36:48;;;;;;;50.33;31.52;;;7.10;99.90;;;;;;5049289;28;20132;-72
2022/03/01 10:39:26;;;;;;;52.45;30.95;;;7.20;99.90;;;;;;5044099;28;20045;-72
2022/03/01 10:41:52;;;;;;;55.97;31.30;;;7.30;99.90;;;;;;5041650;28;20110;-73
2022/03/01 10:44:20;;;;;;;46.88;31.55;;;7.60;99.90;;;;;;5066236;28;20048;-73
2022/03/01 10:46:52;;;;;;;46.85;32.03;;;7.80;99.90;;;;;;5061701;28;20095;-73
2022/03/01 10:49:25;;;;;;;44.50;30.42;;;8.00;99.90;;;;;;5046903;28;20096;-73
2022/03/01 10:52:08;;;;;;;49.58;32.55;;;8.30;99.90;;;;;;5043908;28;20059;-73
2022/03/01 10:54:42;;;;;;;44.10;29.35;;;8.40;99.90;;;;;;5039589;28;20049;-72
2022/03/01 10:57:21;;;;;;;55.45;30.40;;;8.60;99.90;;;;;;5044219;28;20136;-73
2022/03/01 10:59:48;;;;;;;47.83;31.27;;;8.80;99.90;;;;;;5049278;28;20108;-74
2022/03/01 11:02:17;;;;;;;43.97;28.85;;;9.10;99.90;;;;;;5077337;28;20053;-76
2022/03/01 11:04:43;;;;;;;41.95;28.55;;;9.30;99.90;;;;;;5046566;28;20048;-74
2022/03/01 11:07:11;;;;;;;45.47;28.77;;;9.30;99.90;;;;;;5046739;28;20045;-75
2022/03/01 11:09:37;;;;;;;47.30;29.63;;;9.30;99.90;;;;;;5074866;28;20405;-75
2022/03/01 11:12:05;;;;;;;50.40;31.40;;;9.40;99.90;;;;;;5033962;28;20049;-75
2022/03/01 11:15:06;;;;;;;40.05;27.27;;;9.50;99.90;;;;;;5045838;28;20048;-73
2022/03/01 11:17:37;;;;;;;50.25;31.35;;;9.70;98.20;;;;;;5061854;28;20056;-74
2022/03/01 11:20:14;;;;;;;44.38;28.60;;;9.90;98.30;;;;;;5074165;28;20048;-74
2022/03/01 11:22:56;;;;;;;50.60;30.95;;;10.10;96.50;;;;;;5047692;28;20514;-74
2022/03/01 11:25:25;;;;;;;47.88;28.33;;;10.30;98.40;;;;;;5065062;28;20048;-74
2022/03/01 11:27:53;;;;;;;43.90;30.05;;;10.30;95.80;;;;;;5049916;28;20052;-73
2022/03/01 11:30:32;;;;;;;46.83;29.00;;;10.40;95.10;;;;;;5080052;28;20040;-74
2022/03/01 11:32:58;;;;;;;52.70;30.38;;;10.60;95.90;;;;;;5081256;28;20700;-74
2022/03/01 11:35:27;;;;;;;47.92;28.92;;;10.60;94.40;;;;;;5048425;28;20044;-75
2022/03/01 11:38:02;;;;;;;;;;;10.70;95.30;;;;;;5048664;28;20383;-74
2022/03/01 11:40:31;;;;;;;45.28;31.23;;;10.80;92.40;;;;;;5043672;28;19920;-74
2022/03/01 11:43:13;;;;;;;44.33;29.40;;;10.70;93.10;;;;;;5050381;28;20052;-74
2022/03/01 11:45:43;;;;;;;46.85;28.92;;;10.80;91.40;;;;;;5046351;28;20135;-73
2022/03/01 11:48:18;;;;;;;46.25;26.73;;;10.80;93.60;;;;;;5046424;28;20052;-75
2022/03/01 11:50:46;;;;;;;42.63;29.23;;;10.70;90.20;;;;;;5042747;28;20049;-73
2022/03/01 11:53:18;;;;;;;41.72;27.98;;;10.70;90.10;;;;;;5048698;28;20045;-74
2022/03/01 11:55:44;;;;;;;46.25;28.00;;;10.60;91.70;;;;;;5060308;28;20092;-75
2022/03/01 11:58:11;;;;;;;44.70;29.90;;;10.60;92.80;;;;;;5078896;28;20076;-74
2022/03/01 12:00:40;;;;;;;55.53;29.25;;;10.60;92.10;;;;;;5044859;28;20105;-74
2022/03/01 12:03:12;;;;;;;46.58;29.40;;;10.50;92.50;;;;;;5042514;28;20049;-74
2022/03/01 12:05:38;;;;;;;50.83;29.52;;;10.50;91.10;;;;;;5077347;28;20171;-75
2022/03/01 12:08:12;;;;;;;47.47;30.13;;;10.50;91.30;;;;;;5076206;28;20056;-73
2022/03/01 12:10:38;;;;;;;50.60;31.45;;;10.50;90.30;;;;;;5042104;28;20438;-74
2022/03/01 12:13:07;;;;;;;55.10;31.90;;;10.50;90.60;;;;;;5078860;28;20115;-76
2022/03/01 12:15:40;;;;;;;49.70;29.00;;;10.50;89.20;;;;;;5046733;28;20041;-76
2022/03/01 12:18:16;;;;;;;50.92;31.38;;;10.50;89.20;;;;;;5048334;28;20052;-75
2022/03/01 12:20:46;;;;;;;45.50;27.02;;;10.60;89.70;;;;;;5075671;28;20390;-75
2022/03/01 12:23:26;;;;;;;48.53;30.35;;;10.70;89.20;;;;;;5048057;28;20110;-75
2022/03/01 12:25:52;;;;;;;48.17;29.33;;;10.70;86.90;;;;;;5046067;28;20041;-75
2022/03/01 12:28:21;;;;;;;48.47;30.88;;;10.70;87.90;;;;;;5080569;28;20072;-75
2022/03/01 12:30:46;;;;;;;50.42;31.83;;;10.70;89.20;;;;;;5047603;28;20044;-75
2022/03/01 12:33:17;;;;;;;49.97;31.75;;;10.70;89.50;;;;;;5045549;28;20406;-76
2022/03/01 12:35:58;;;;;;;41.17;28.08;;;10.80;89.40;;;;;;5047513;28;20520;-76